sensor_id;sensor_type;location;lat;lon;timestamp;pressure;altitude;pressure_sealevel;temperature;humidity
48386;BME280;34644;47.964;7.982;2023-03-18T00:04:32;96291.75;;;16.56;64.52
48386;BME280;34644;47.964;7.982;2023-03-18T00:11:32;96284.84;;;16.55;64.61
48386;BME280;34644;47.964;7.982;2023-03-18T00:18:32;96285.66;;;16.56;64.52
48386;BME280;34644;47.964;7.982;2023-03-18T00:25:33;96292.03;;;16.55;64.52
48386;BME280;34644;47.964;7.982;2023-03-18T00:32:34;96294.19;;;16.53;64.46
48386;BME280;34644;47.964;7.982;2023-03-18T00:39:34;96298.69;;;16.52;64.42
48386;BME280;34644;47.964;7.982;2023-03-18T00:46:36;96300.06;;;16.50;64.36
48386;BME280;34644;47.964;7.982;2023-03-18T00:53:37;96303.50;;;16.50;64.17
48386;BME280;34644;47.964;7.982;2023-03-18T01:00:38;96300.34;;;16.48;64.46
48386;BME280;34644;47.964;7.982;2023-03-18T01:07:38;96292.63;;;16.46;64.40
48386;BME280;34644;47.964;7.982;2023-03-18T01:14:39;96301.69;;;16.45;64.35
48386;BME280;34644;47.964;7.982;2023-03-18T01:21:39;96295.84;;;16.43;64.42
48386;BME280;34644;47.964;7.982;2023-03-18T01:28:40;96280.97;;;16.42;64.40
48386;BME280;34644;47.964;7.982;2023-03-18T01:35:41;96290.03;;;16.41;64.38
48386;BME280;34644;47.964;7.982;2023-03-18T01:42:42;96279.38;;;16.41;64.34
48386;BME280;34644;47.964;7.982;2023-03-18T01:49:48;96283.38;;;16.39;64.39
48386;BME280;34644;47.964;7.982;2023-03-18T01:56:49;96281.00;;;16.37;64.26
48386;BME280;34644;47.964;7.982;2023-03-18T02:03:50;96269.59;;;16.37;64.16
48386;BME280;34644;47.964;7.982;2023-03-18T02:10:51;96266.13;;;16.36;64.22
48386;BME280;34644;47.964;7.982;2023-03-18T02:17:54;96253.09;;;16.35;64.34
48386;BME280;34644;47.964;7.982;2023-03-18T02:32:03;96254.19;;;16.34;64.22
48386;BME280;34644;47.964;7.982;2023-03-18T02:39:05;96263.50;;;16.31;64.18
48386;BME280;34644;47.964;7.982;2023-03-18T02:46:14;96270.69;;;16.31;64.13
48386;BME280;34644;47.964;7.982;2023-03-18T02:53:30;96259.53;;;16.28;64.10
48386;BME280;34644;47.964;7.982;2023-03-18T03:00:30;96269.38;;;16.28;64.07
48386;BME280;34644;47.964;7.982;2023-03-18T03:07:31;96257.13;;;16.27;64.08
48386;BME280;34644;47.964;7.982;2023-03-18T03:14:34;96262.72;;;16.25;64.02
48386;BME280;34644;47.964;7.982;2023-03-18T03:21:36;96268.34;;;16.24;64.04
48386;BME280;34644;47.964;7.982;2023-03-18T03:28:36;96267.53;;;16.23;63.95
48386;BME280;34644;47.964;7.982;2023-03-18T03:35:37;96265.94;;;16.22;63.87
48386;BME280;34644;47.964;7.982;2023-03-18T03:42:39;96275.00;;;16.21;63.92
48386;BME280;34644;47.964;7.982;2023-03-18T03:49:40;96279.56;;;16.21;64.03
48386;BME280;34644;47.964;7.982;2023-03-18T03:56:41;96271.84;;;16.19;63.78
48386;BME280;34644;47.964;7.982;2023-03-18T04:03:41;96268.66;;;16.17;63.93
48386;BME280;34644;47.964;7.982;2023-03-18T04:10:42;96265.22;;;16.17;63.86
48386;BME280;34644;47.964;7.982;2023-03-18T04:17:43;96268.94;;;16.16;63.78
48386;BME280;34644;47.964;7.982;2023-03-18T04:24:48;96270.03;;;16.15;63.72
48386;BME280;34644;47.964;7.982;2023-03-18T04:31:48;96272.13;;;16.13;63.87
48386;BME280;34644;47.964;7.982;2023-03-18T04:38:49;96272.41;;;16.11;63.68
48386;BME280;34644;47.964;7.982;2023-03-18T04:45:50;96273.50;;;16.10;63.69
48386;BME280;34644;47.964;7.982;2023-03-18T04:52:52;96277.22;;;16.09;63.62
48386;BME280;34644;47.964;7.982;2023-03-18T04:59:58;96274.06;;;16.07;63.71
48386;BME280;34644;47.964;7.982;2023-03-18T05:06:59;96268.75;;;16.07;63.59
48386;BME280;34644;47.964;7.982;2023-03-18T05:14:07;96276.19;;;16.05;63.56
48386;BME280;34644;47.964;7.982;2023-03-18T05:21:14;96272.72;;;16.04;63.61
48386;BME280;34644;47.964;7.982;2023-03-18T05:28:14;96275.66;;;16.03;63.49
48386;BME280;34644;47.964;7.982;2023-03-18T05:35:22;96274.06;;;16.02;63.55
48386;BME280;34644;47.964;7.982;2023-03-18T05:42:26;96272.50;;;16.01;63.42
48386;BME280;34644;47.964;7.982;2023-03-18T05:49:27;96280.75;;;15.99;63.35
48386;BME280;34644;47.964;7.982;2023-03-18T05:56:45;96291.38;;;15.99;63.31
48386;BME280;34644;47.964;7.982;2023-03-18T06:03:46;96296.97;;;15.98;63.28
48386;BME280;34644;47.964;7.982;2023-03-18T06:10:46;96291.66;;;15.98;63.25
48386;BME280;34644;47.964;7.982;2023-03-18T06:17:47;96307.59;;;15.98;63.32
48386;BME280;34644;47.964;7.982;2023-03-18T06:24:47;96309.47;;;15.97;63.32
48386;BME280;34644;47.964;7.982;2023-03-18T06:31:49;96310.53;;;15.96;63.05
48386;BME280;34644;47.964;7.982;2023-03-18T06:38:54;96315.06;;;15.96;63.08
48386;BME280;34644;47.964;7.982;2023-03-18T06:45:57;96321.94;;;15.97;63.03
48386;BME280;34644;47.964;7.982;2023-03-18T06:52:59;96328.09;;;15.97;62.97
48386;BME280;34644;47.964;7.982;2023-03-18T07:00:03;96334.44;;;15.96;63.04
48386;BME280;34644;47.964;7.982;2023-03-18T07:07:04;96332.31;;;15.98;63.04
48386;BME280;34644;47.964;7.982;2023-03-18T07:14:04;96328.59;;;15.99;62.87
48386;BME280;34644;47.964;7.982;2023-03-18T07:21:07;96333.63;;;16.01;62.86
48386;BME280;34644;47.964;7.982;2023-03-18T07:28:08;96339.97;;;16.05;62.61
48386;BME280;34644;47.964;7.982;2023-03-18T07:35:09;96341.56;;;16.06;62.74
48386;BME280;34644;47.964;7.982;2023-03-18T07:42:10;96346.34;;;16.09;62.60
48386;BME280;34644;47.964;7.982;2023-03-18T07:49:11;96342.06;;;16.13;62.52
48386;BME280;34644;47.964;7.982;2023-03-18T07:56:11;96345.25;;;16.15;62.55
48386;BME280;34644;47.964;7.982;2023-03-18T08:03:11;96350.84;;;16.14;62.63
48386;BME280;34644;47.964;7.982;2023-03-18T08:10:12;96346.28;;;16.19;62.71
48386;BME280;34644;47.964;7.982;2023-03-18T08:17:14;96349.69;;;16.25;62.55
48386;BME280;34644;47.964;7.982;2023-03-18T08:24:14;96345.66;;;16.33;63.02
48386;BME280;34644;47.964;7.982;2023-03-18T08:31:14;96346.72;;;16.37;62.88
48386;BME280;34644;47.964;7.982;2023-03-18T08:38:15;96350.91;;;16.43;62.86
48386;BME280;34644;47.964;7.982;2023-03-18T08:45:15;96345.84;;;16.46;63.02
48386;BME280;34644;47.964;7.982;2023-03-18T08:52:16;96338.31;;;16.54;62.84
48386;BME280;34644;47.964;7.982;2023-03-18T08:59:17;96316.97;;;16.64;62.71
48386;BME280;34644;47.964;7.982;2023-03-18T09:06:17;96310.25;;;16.72;62.64
48386;BME280;34644;47.964;7.982;2023-03-18T09:13:17;96308.09;;;16.74;62.54
48386;BME280;34644;47.964;7.982;2023-03-18T09:20:18;96310.72;;;16.79;62.52
48386;BME280;34644;47.964;7.982;2023-03-18T09:27:18;96307.22;;;16.83;62.50
48386;BME280;34644;47.964;7.982;2023-03-18T09:34:18;96303.44;;;16.90;62.56
48386;BME280;34644;47.964;7.982;2023-03-18T09:55:51;96294.47;;;17.10;62.29
48386;BME280;34644;47.964;7.982;2023-03-18T10:02:54;96293.38;;;17.11;62.26
48386;BME280;34644;47.964;7.982;2023-03-18T10:09:59;96294.41;;;17.15;62.04
48386;BME280;34644;47.964;7.982;2023-03-18T10:17:04;96281.59;;;17.17;62.13
48386;BME280;34644;47.964;7.982;2023-03-18T10:31:43;96292.03;;;17.38;61.50
48386;BME280;34644;47.964;7.982;2023-03-18T10:38:49;96286.66;;;17.43;61.70
48386;BME280;34644;47.964;7.982;2023-03-18T10:45:57;96283.84;;;17.53;61.54
48386;BME280;34644;47.964;7.982;2023-03-18T10:59:59;96270.47;;;17.58;61.35
48386;BME280;34644;47.964;7.982;2023-03-18T11:07:00;96270.47;;;17.58;61.46
48386;BME280;34644;47.964;7.982;2023-03-18T11:14:02;96270.47;;;17.58;61.49
48386;BME280;34644;47.964;7.982;2023-03-18T11:21:03;96264.56;;;17.61;61.43
48386;BME280;34644;47.964;7.982;2023-03-18T11:28:18;96265.13;;;17.58;61.53
48386;BME280;34644;47.964;7.982;2023-03-18T11:35:21;96276.03;;;17.62;61.30
48386;BME280;34644;47.964;7.982;2023-03-18T11:42:22;96255.41;;;17.67;61.48
48386;BME280;34644;47.964;7.982;2023-03-18T11:49:24;96252.34;;;17.79;61.31
48386;BME280;34644;47.964;7.982;2023-03-18T12:18:53;96228.28;;;18.03;60.88
48386;BME280;34644;47.964;7.982;2023-03-18T12:26:07;96226.19;;;18.00;60.79
48386;BME280;34644;47.964;7.982;2023-03-18T12:33:17;96225.75;;;17.93;60.88
48386;BME280;34644;47.964;7.982;2023-03-18T12:40:32;96220.56;;;17.83;61.04
48386;BME280;34644;47.964;7.982;2023-03-18T12:47:41;96220.06;;;17.81;61.03
48386;BME280;34644;47.964;7.982;2023-03-18T12:54:46;96221.06;;;17.85;61.11
48386;BME280;34644;47.964;7.982;2023-03-18T13:01:52;96211.44;;;17.89;61.03
48386;BME280;34644;47.964;7.982;2023-03-18T13:09:04;96208.00;;;17.83;61.10
48386;BME280;34644;47.964;7.982;2023-03-18T13:16:07;96204.66;;;17.78;61.16
48386;BME280;34644;47.964;7.982;2023-03-18T13:23:42;96196.94;;;17.76;61.17
48386;BME280;34644;47.964;7.982;2023-03-18T14:13:35;96175.38;;;17.72;61.20
48386;BME280;34644;47.964;7.982;2023-03-18T14:20:39;96171.34;;;17.75;61.26
48386;BME280;34644;47.964;7.982;2023-03-18T14:34:54;96160.03;;;17.83;61.13
48386;BME280;34644;47.964;7.982;2023-03-18T14:41:56;96151.47;;;17.86;60.99
48386;BME280;34644;47.964;7.982;2023-03-18T14:48:56;96149.09;;;17.85;60.95
48386;BME280;34644;47.964;7.982;2023-03-18T14:55:57;96153.72;;;17.79;61.05
48386;BME280;34644;47.964;7.982;2023-03-18T15:03:08;96155.56;;;17.79;61.05
48386;BME280;34644;47.964;7.982;2023-03-18T15:10:14;96151.63;;;17.76;61.12
48386;BME280;34644;47.964;7.982;2023-03-18T15:17:18;96156.16;;;17.76;61.08
48386;BME280;34644;47.964;7.982;2023-03-18T15:24:19;96151.63;;;17.76;61.10
48386;BME280;34644;47.964;7.982;2023-03-18T15:31:22;96161.47;;;17.76;61.12
48386;BME280;34644;47.964;7.982;2023-03-18T15:38:27;96161.00;;;17.73;61.11
48386;BME280;34644;47.964;7.982;2023-03-18T15:45:27;96148.81;;;17.67;61.18
48386;BME280;34644;47.964;7.982;2023-03-18T15:52:32;96153.94;;;17.64;61.33
48386;BME280;34644;47.964;7.982;2023-03-18T15:59:33;96155.31;;;17.61;61.37
48386;BME280;34644;47.964;7.982;2023-03-18T16:06:34;96162.81;;;17.59;61.32
48386;BME280;34644;47.964;7.982;2023-03-18T16:13:35;96163.38;;;17.56;61.38
48386;BME280;34644;47.964;7.982;2023-03-18T16:20:38;96164.75;;;17.53;61.45
48386;BME280;34644;47.964;7.982;2023-03-18T16:27:41;96165.31;;;17.50;61.62
48386;BME280;34644;47.964;7.982;2023-03-18T16:34:43;96180.81;;;17.48;61.58
48386;BME280;34644;47.964;7.982;2023-03-18T16:41:43;96182.19;;;17.46;61.53
48386;BME280;34644;47.964;7.982;2023-03-18T16:48:44;96188.09;;;17.43;61.61
48386;BME280;34644;47.964;7.982;2023-03-18T16:55:45;96198.22;;;17.41;61.59
48386;BME280;34644;47.964;7.982;2023-03-18T17:02:45;96201.97;;;17.40;61.58
48386;BME280;34644;47.964;7.982;2023-03-18T17:09:46;96194.03;;;17.34;61.64
48386;BME280;34644;47.964;7.982;2023-03-18T17:16:46;96212.19;;;17.32;61.38
48386;BME280;34644;47.964;7.982;2023-03-18T17:23:47;96215.41;;;17.29;61.58
48386;BME280;34644;47.964;7.982;2023-03-18T17:30:47;96224.78;;;17.27;61.56
48386;BME280;34644;47.964;7.982;2023-03-18T17:37:49;96222.41;;;17.25;61.56
48386;BME280;34644;47.964;7.982;2023-03-18T17:44:50;96228.03;;;17.24;61.51
48386;BME280;34644;47.964;7.982;2023-03-18T17:51:50;96229.38;;;17.21;61.53
48386;BME280;34644;47.964;7.982;2023-03-18T17:58:51;96229.16;;;17.17;61.66
48386;BME280;34644;47.964;7.982;2023-03-18T18:05:53;96235.84;;;17.15;61.59
48386;BME280;34644;47.964;7.982;2023-03-18T18:12:54;96240.66;;;17.13;61.59
48386;BME280;34644;47.964;7.982;2023-03-18T18:19:54;96257.69;;;17.12;61.59
48386;BME280;34644;47.964;7.982;2023-03-18T18:26:54;96252.94;;;17.09;61.60
48386;BME280;34644;47.964;7.982;2023-03-18T18:33:55;96252.44;;;17.07;61.73
48386;BME280;34644;47.964;7.982;2023-03-18T18:40:55;96261.78;;;17.04;61.75
48386;BME280;34644;47.964;7.982;2023-03-18T18:47:56;96261.28;;;17.02;61.76
48386;BME280;34644;47.964;7.982;2023-03-18T18:54:56;96260.25;;;16.98;61.79
48386;BME280;34644;47.964;7.982;2023-03-18T19:01:57;96271.16;;;16.96;61.68
48386;BME280;34644;47.964;7.982;2023-03-18T19:08:58;96270.66;;;16.94;61.82
48386;BME280;34644;47.964;7.982;2023-03-18T19:16:03;96278.66;;;16.94;61.87
48386;BME280;34644;47.964;7.982;2023-03-18T19:23:06;96289.59;;;16.93;61.93
48386;BME280;34644;47.964;7.982;2023-03-18T19:30:15;96287.19;;;16.91;61.83
48386;BME280;34644;47.964;7.982;2023-03-18T19:37:25;96293.09;;;16.88;61.84
48386;BME280;34644;47.964;7.982;2023-03-18T19:44:27;96293.09;;;16.88;61.90
48386;BME280;34644;47.964;7.982;2023-03-18T19:51:28;96293.38;;;16.87;61.74
48386;BME280;34644;47.964;7.982;2023-03-18T19:58:28;96299.75;;;16.86;61.84
48386;BME280;34644;47.964;7.982;2023-03-18T20:05:28;96295.50;;;16.85;61.79
48386;BME280;34644;47.964;7.982;2023-03-18T20:13:02;96305.34;;;16.84;61.83
48386;BME280;34644;47.964;7.982;2023-03-18T20:19:55;96313.63;;;16.82;61.89
48386;BME280;34644;47.964;7.982;2023-03-18T20:26:56;96323.72;;;16.80;61.89
48386;BME280;34644;47.964;7.982;2023-03-18T20:33:56;96331.22;;;16.78;61.88
48386;BME280;34644;47.964;7.982;2023-03-18T20:40:57;96333.88;;;16.78;62.00
48386;BME280;34644;47.964;7.982;2023-03-18T20:47:57;96352.78;;;16.77;62.06
48386;BME280;34644;47.964;7.982;2023-03-18T20:54:57;96353.84;;;16.76;61.98
48386;BME280;34644;47.964;7.982;2023-03-18T21:01:58;96353.34;;;16.74;62.15
48386;BME280;34644;47.964;7.982;2023-03-18T21:08:58;96356.28;;;16.72;62.08
48386;BME280;34644;47.964;7.982;2023-03-18T21:15:59;96353.34;;;16.74;61.97
48386;BME280;34644;47.964;7.982;2023-03-18T21:22:59;96352.00;;;16.71;62.05
48386;BME280;34644;47.964;7.982;2023-03-18T21:30:00;96355.78;;;16.70;62.10
48386;BME280;34644;47.964;7.982;2023-03-18T21:37:00;96356.03;;;16.69;62.21
48386;BME280;34644;47.964;7.982;2023-03-18T21:44:01;96354.44;;;16.68;62.04
48386;BME280;34644;47.964;7.982;2023-03-18T21:51:02;96360.03;;;16.66;61.99
48386;BME280;34644;47.964;7.982;2023-03-18T21:58:02;96358.44;;;16.65;62.24
48386;BME280;34644;47.964;7.982;2023-03-18T22:05:04;96345.44;;;16.63;62.05
48386;BME280;34644;47.964;7.982;2023-03-18T22:12:17;96344.63;;;16.63;61.90
48386;BME280;34644;47.964;7.982;2023-03-18T22:19:18;96342.25;;;16.61;61.93
48386;BME280;34644;47.964;7.982;2023-03-18T22:26:19;96344.13;;;16.61;61.98
48386;BME280;34644;47.964;7.982;2023-03-18T22:33:38;96349.72;;;16.59;61.94
48386;BME280;34644;47.964;7.982;2023-03-18T22:40:38;96352.66;;;16.58;61.88
48386;BME280;34644;47.964;7.982;2023-03-18T22:47:40;96357.19;;;16.57;61.86
48386;BME280;34644;47.964;7.982;2023-03-18T22:54:40;96371.56;;;16.56;61.86
48386;BME280;34644;47.964;7.982;2023-03-18T23:01:41;96379.81;;;16.55;61.86
48386;BME280;34644;47.964;7.982;2023-03-18T23:08:41;96372.91;;;16.54;61.89
48386;BME280;34644;47.964;7.982;2023-03-18T23:15:42;96372.13;;;16.53;61.90
48386;BME280;34644;47.964;7.982;2023-03-18T23:22:43;96381.97;;;16.53;61.83
48386;BME280;34644;47.964;7.982;2023-03-18T23:29:44;96391.00;;;16.52;61.82
48386;BME280;34644;47.964;7.982;2023-03-18T23:36:45;96391.28;;;16.50;61.87
48386;BME280;34644;47.964;7.982;2023-03-18T23:43:45;96389.69;;;16.49;61.79
48386;BME280;34644;47.964;7.982;2023-03-18T23:50:46;96398.75;;;16.48;61.72
48386;BME280;34644;47.964;7.982;2023-03-18T23:57:46;96407.81;;;16.47;61.81
